createdAt,value
2019-02-16T00:09:59.000Z,1019.121
2019-02-16T00:19:59.000Z,1019.096
2019-02-16T00:29:59.000Z,1019.067
2019-02-16T00:39:59.000Z,1019.005
2019-02-16T00:49:59.000Z,1018.901
2019-02-16T00:59:59.000Z,1018.848
2019-02-16T01:09:59.000Z,1018.762
2019-02-16T01:19:59.000Z,1018.667
2019-02-16T01:29:59.000Z,1018.578
2019-02-16T01:39:59.000Z,1018.489
2019-02-16T01:50:00.000Z,1018.369
2019-02-16T02:00:01.000Z,1018.377
2019-02-16T02:10:00.000Z,1018.359
2019-02-16T02:20:00.000Z,1018.204
2019-02-16T02:40:00.000Z,1018.006
2019-02-16T02:50:00.000Z,1018.096
2019-02-16T03:00:01.000Z,1018.039
2019-02-16T03:10:00.000Z,1017.885
2019-02-16T03:30:00.000Z,1017.749
2019-02-16T03:40:00.000Z,1017.79
2019-02-16T03:50:00.000Z,1017.743
2019-02-16T04:00:03.000Z,1017.759
2019-02-16T04:10:00.000Z,1017.632
2019-02-16T04:20:01.000Z,1017.716
2019-02-16T04:30:00.000Z,1017.609
2019-02-16T04:40:04.000Z,1017.732
2019-02-16T04:50:00.000Z,1017.713
2019-02-16T05:00:00.000Z,1017.573
2019-02-16T05:10:00.000Z,1017.495
2019-02-16T05:20:00.000Z,1017.379
2019-02-16T05:30:00.000Z,1017.402
2019-02-16T05:40:00.000Z,1017.436
2019-02-16T05:50:00.000Z,1017.405
2019-02-16T06:00:00.000Z,1017.349
2019-02-16T06:10:00.000Z,1017.457
2019-02-16T06:20:00.000Z,1017.496
2019-02-16T06:30:00.000Z,1017.632
2019-02-16T06:40:00.000Z,1017.65
2019-02-16T06:50:00.000Z,1017.65
2019-02-16T07:00:00.000Z,1017.763
2019-02-16T07:10:00.000Z,1017.768
2019-02-16T07:20:00.000Z,1017.944
2019-02-16T07:30:00.000Z,1018.078
2019-02-16T07:40:00.000Z,1018.101
2019-02-16T07:50:00.000Z,1018.156
2019-02-16T08:00:00.000Z,1018.206
2019-02-16T08:10:01.000Z,1018.229
2019-02-16T08:20:00.000Z,1018.121
2019-02-16T08:30:00.000Z,1018.123
2019-02-16T08:40:00.000Z,1018.156
2019-02-16T08:50:00.000Z,1018.031
2019-02-16T09:00:00.000Z,1018.106
2019-02-16T09:10:00.000Z,1018.051
2019-02-16T09:20:00.000Z,1018.088
2019-02-16T09:30:02.000Z,1018.146
2019-02-16T09:40:00.000Z,1018.161
2019-02-16T09:50:01.000Z,1018.105
2019-02-16T10:00:00.000Z,1018.117
2019-02-16T10:10:01.000Z,1018.231
2019-02-16T10:20:01.000Z,1018.157
2019-02-16T10:30:01.000Z,1017.974
2019-02-16T10:40:03.000Z,1018.102
2019-02-16T10:50:01.000Z,1018.116
2019-02-16T11:00:01.000Z,1018.087
2019-02-16T11:10:01.000Z,1018.173
2019-02-16T11:20:01.000Z,1018.092
2019-02-16T11:30:01.000Z,1018.09
2019-02-16T11:40:01.000Z,1018.08
2019-02-16T11:50:03.000Z,1018.06
2019-02-16T12:00:03.000Z,1017.917
2019-02-16T12:10:01.000Z,1017.843
2019-02-16T12:20:01.000Z,1017.796
2019-02-16T12:30:01.000Z,1017.743
2019-02-16T12:40:02.000Z,1017.643
2019-02-16T12:50:01.000Z,1017.596
2019-02-16T13:00:01.000Z,1017.449
2019-02-16T13:10:03.000Z,1017.368
2019-02-16T13:20:01.000Z,1017.227
2019-02-16T13:30:02.000Z,1017.208
2019-02-16T13:40:01.000Z,1017.073
2019-02-16T13:50:01.000Z,1016.993
2019-02-16T14:00:02.000Z,1016.993
2019-02-16T14:10:01.000Z,1016.945
2019-02-16T14:20:01.000Z,1016.922
2019-02-16T14:30:01.000Z,1016.913
2019-02-16T14:40:01.000Z,1017.003
2019-02-16T14:50:01.000Z,1017.097
2019-02-16T15:00:01.000Z,1017.073
2019-02-16T15:10:01.000Z,1017.076
2019-02-16T15:20:01.000Z,1017.085
2019-02-16T15:30:01.000Z,1016.959
2019-02-16T15:40:01.000Z,1016.957
2019-02-16T15:50:01.000Z,1016.961
2019-02-16T16:00:01.000Z,1016.841
2019-02-16T16:10:05.000Z,1016.862
2019-02-16T16:20:01.000Z,1016.806
2019-02-16T16:30:03.000Z,1016.878
2019-02-16T17:30:02.000Z,1017.032
2019-02-16T17:40:01.000Z,1017.161
2019-02-16T18:10:02.000Z,1017.227
2019-02-16T18:20:02.000Z,1017.263
2019-02-16T18:30:02.000Z,1017.223
2019-02-16T18:40:02.000Z,1017.196
2019-02-16T18:50:02.000Z,1017.098
2019-02-16T19:10:02.000Z,1017.128
2019-02-16T19:20:02.000Z,1017.187
2019-02-16T19:30:02.000Z,1017.209
2019-02-16T19:40:02.000Z,1017.197
2019-02-16T19:50:02.000Z,1017.187
2019-02-16T20:00:02.000Z,1017.178
2019-02-16T20:10:02.000Z,1017.176
2019-02-16T20:20:02.000Z,1017.188
2019-02-16T20:30:02.000Z,1017.171
2019-02-16T20:40:03.000Z,1017.106
2019-02-16T20:50:02.000Z,1017.237
2019-02-16T21:00:02.000Z,1017.247
2019-02-16T21:10:02.000Z,1017.178
2019-02-16T21:30:02.000Z,1017.189
2019-02-16T21:40:03.000Z,1017.124
2019-02-16T21:50:02.000Z,1017.123
2019-02-16T22:00:03.000Z,1017.138
2019-02-16T22:10:02.000Z,1017.144
2019-02-16T22:20:06.000Z,1017.157
2019-02-16T22:30:02.000Z,1017.127
2019-02-16T22:40:02.000Z,1017.122
2019-02-16T22:50:02.000Z,1017.196
2019-02-16T23:00:02.000Z,1017.214
2019-02-16T23:10:02.000Z,1017.154
2019-02-16T23:20:02.000Z,1017.079
2019-02-16T23:40:03.000Z,1016.953
2019-02-16T23:50:02.000Z,1016.897
